Time;durP1;ratioP1;P1;durP2;ratioP2;P2;SDS_P1;SDS_P2;PMS_P1;PMS_P2;Temp;Humidity;BMP_temperature;BMP_pressure;BME280_temperature;BME280_humidity;BME280_pressure;Samples;Min_cycle;Max_cycle;Signal;HPM_P1;HPM_P2
2023/10/28 00:00:17;;;;;;;3.00;1.97;;;23.10;67.90;;;;;;5007072;28;20524;-68
2023/10/28 00:02:47;;;;;;;1.80;1.70;;;23.10;68.10;;;;;;5017752;28;21112;-68
2023/10/28 00:05:15;;;;;;;2.10;1.93;;;23.10;68.10;;;;;;5019166;28;20507;-68
2023/10/28 00:07:43;;;;;;;1.80;1.70;;;23.00;67.90;;;;;;5011963;28;20857;-69
2023/10/28 00:10:13;;;;;;;2.30;1.30;;;23.00;68.00;;;;;;5012164;28;20457;-68
2023/10/28 00:12:42;;;;;;;1.67;1.57;;;23.00;67.90;;;;;;5013083;28;20460;-68
2023/10/28 00:15:10;;;;;;;2.83;2.40;;;23.00;67.90;;;;;;5020510;28;20529;-68
2023/10/28 00:17:38;;;;;;;1.47;1.37;;;23.00;68.00;;;;;;5012616;28;20516;-68
2023/10/28 00:20:09;;;;;;;1.40;1.30;;;23.00;68.20;;;;;;5013279;28;20511;-68
2023/10/28 00:22:37;;;;;;;2.03;1.83;;;23.00;67.80;;;;;;5011856;28;20966;-69
2023/10/28 00:25:06;;;;;;;1.30;1.20;;;23.00;68.20;;;;;;5013997;28;20526;-68
2023/10/28 00:27:34;;;;;;;1.90;1.80;;;23.00;68.20;;;;;;5013698;28;20453;-69
2023/10/28 00:30:03;;;;;;;1.57;1.40;;;23.00;68.00;;;;;;5016329;28;21215;-68
2023/10/28 00:32:32;;;;;;;1.70;1.60;;;23.00;68.10;;;;;;5009246;28;20503;-68
2023/10/28 00:35:00;;;;;;;2.10;1.50;;;23.00;68.00;;;;;;5014538;28;20433;-68
2023/10/28 00:37:30;;;;;;;1.30;1.20;;;23.00;67.90;;;;;;5013801;28;20471;-68
2023/10/28 00:39:58;;;;;;;2.00;1.60;;;23.00;67.80;;;;;;5012644;28;20464;-68
2023/10/28 00:42:27;;;;;;;1.70;1.50;;;23.00;67.80;;;;;;5009545;28;20458;-68
2023/10/28 00:44:55;;;;;;;1.40;1.30;;;22.90;67.90;;;;;;5046885;28;20452;-68
2023/10/28 00:47:24;;;;;;;1.40;1.30;;;22.90;67.80;;;;;;5032981;28;20464;-68
2023/10/28 00:49:52;;;;;;;1.93;1.30;;;22.90;67.70;;;;;;5013968;28;20960;-68
2023/10/28 00:52:21;;;;;;;1.27;1.17;;;22.90;67.80;;;;;;5013673;28;20498;-68
2023/10/28 00:54:54;;;;;;;1.30;1.10;;;22.90;68.20;;;;;;5013333;28;20453;-69
2023/10/28 00:57:25;;;;;;;1.50;1.40;;;22.90;67.90;;;;;;5010336;28;20544;-68
2023/10/28 00:59:55;;;;;;;1.53;1.27;;;22.90;67.80;;;;;;5013741;28;20425;-68
2023/10/28 01:02:25;;;;;;;1.33;1.23;;;22.90;68.00;;;;;;5018134;28;20459;-69
2023/10/28 01:04:55;;;;;;;1.57;1.27;;;22.90;67.90;;;;;;5033101;28;20428;-69
2023/10/28 01:07:24;;;;;;;1.40;1.30;;;22.90;67.90;;;;;;5008434;28;20484;-69
2023/10/28 01:09:53;;;;;;;1.77;1.37;;;22.90;68.00;;;;;;5009364;28;20565;-69
2023/10/28 01:12:23;;;;;;;1.87;1.60;;;22.90;67.90;;;;;;5019519;28;20468;-68
2023/10/28 01:14:52;;;;;;;1.17;1.07;;;22.90;67.90;;;;;;5012460;28;20448;-68
2023/10/28 01:17:21;;;;;;;1.10;1.00;;;22.90;67.90;;;;;;5012339;28;20437;-68
2023/10/28 01:19:49;;;;;;;1.30;1.20;;;22.90;67.80;;;;;;5013195;28;20455;-68
2023/10/28 01:22:19;;;;;;;1.50;1.40;;;22.80;67.90;;;;;;5008658;28;20466;-68
2023/10/28 01:24:47;;;;;;;1.27;1.17;;;22.80;67.80;;;;;;5011543;28;20454;-68
2023/10/28 01:27:16;;;;;;;2.10;1.67;;;22.80;67.90;;;;;;5018964;28;20476;-68
2023/10/28 01:29:45;;;;;;;1.53;1.20;;;22.80;67.90;;;;;;5013039;28;20851;-68
2023/10/28 01:32:14;;;;;;;1.47;1.37;;;22.80;68.00;;;;;;5023134;28;20484;-68
2023/10/28 01:34:49;;;;;;;1.57;1.47;;;22.80;67.90;;;;;;5032633;28;20421;-69
2023/10/28 01:37:19;;;;;;;1.33;0.93;;;22.80;67.80;;;;;;5032854;28;20430;-68
2023/10/28 01:39:48;;;;;;;1.83;1.50;;;22.80;67.90;;;;;;5006133;28;21338;-69
2023/10/28 01:42:16;;;;;;;3.30;1.40;;;22.80;68.50;;;;;;5012050;28;21013;-68
2023/10/28 01:44:45;;;;;;;1.43;1.33;;;22.80;68.10;;;;;;5012574;28;20823;-68
2023/10/28 01:47:14;;;;;;;3.37;1.50;;;22.80;68.30;;;;;;5018624;28;20481;-68
2023/10/28 01:49:43;;;;;;;1.20;1.00;;;22.80;68.10;;;;;;5032799;28;20437;-68
2023/10/28 01:52:13;;;;;;;1.23;1.13;;;22.80;68.00;;;;;;5013739;28;20496;-68
2023/10/28 01:54:42;;;;;;;3.53;1.30;;;22.80;68.20;;;;;;5009554;28;20453;-68
2023/10/28 01:57:11;;;;;;;1.20;1.10;;;22.80;67.90;;;;;;5011453;28;20457;-68
2023/10/28 01:59:40;;;;;;;1.13;1.13;;;22.80;68.00;;;;;;5008399;28;20460;-68
2023/10/28 02:02:08;;;;;;;1.03;0.97;;;22.80;68.30;;;;;;5010363;28;20472;-68
2023/10/28 02:04:36;;;;;;;1.63;0.90;;;22.80;67.90;;;;;;5017219;28;20440;-68
2023/10/28 02:07:06;;;;;;;1.80;1.40;;;22.70;68.10;;;;;;5002886;28;20513;-69
2023/10/28 02:09:34;;;;;;;1.70;1.57;;;22.70;67.90;;;;;;5010926;28;20444;-68
2023/10/28 02:12:05;;;;;;;1.20;1.10;;;22.70;68.00;;;;;;5012809;28;20554;-68
2023/10/28 02:14:33;;;;;;;2.33;1.23;;;22.70;67.90;;;;;;4991396;28;20453;-68
2023/10/28 02:17:02;;;;;;;2.47;1.07;;;22.70;67.80;;;;;;5008605;28;20448;-68
2023/10/28 02:19:31;;;;;;;1.37;1.27;;;22.70;68.00;;;;;;5030968;28;20814;-68
2023/10/28 02:21:59;;;;;;;2.17;1.50;;;22.70;68.10;;;;;;5014214;28;20464;-68
2023/10/28 02:24:42;;;;;;;0.80;0.80;;;22.70;68.10;;;;;;4992306;28;20445;-68
2023/10/28 02:27:12;;;;;;;2.10;1.23;;;22.70;67.90;;;;;;5008713;28;20472;-68
2023/10/28 02:29:41;;;;;;;1.07;1.07;;;22.70;68.30;;;;;;5009168;28;20464;-68
2023/10/28 02:32:10;;;;;;;1.73;1.20;;;22.70;68.40;;;;;;5011053;28;20519;-68
2023/10/28 02:34:41;;;;;;;0.93;0.83;;;22.70;68.10;;;;;;5011860;28;20437;-67
2023/10/28 02:37:14;;;;;;;0.93;0.93;;;22.60;68.10;;;;;;5022212;28;20455;-67
2023/10/28 02:39:43;;;;;;;2.50;1.10;;;22.60;68.00;;;;;;5010639;28;20475;-68
2023/10/28 02:42:12;;;;;;;1.30;1.20;;;22.60;68.30;;;;;;5031264;28;20435;-68
2023/10/28 02:44:40;;;;;;;1.70;0.90;;;22.60;68.30;;;;;;5031519;28;20511;-68
2023/10/28 02:47:10;;;;;;;3.17;1.00;;;22.60;68.10;;;;;;5014715;28;20511;-68
2023/10/28 02:49:38;;;;;;;0.87;0.80;;;22.60;68.70;;;;;;5007322;28;20999;-68
2023/10/28 02:52:07;;;;;;;0.90;0.90;;;22.60;68.70;;;;;;5009015;28;20448;-68
2023/10/28 02:54:35;;;;;;;0.90;0.90;;;22.60;68.70;;;;;;5010577;28;20437;-68
2023/10/28 02:57:04;;;;;;;0.83;0.83;;;22.60;68.70;;;;;;5005706;28;20456;-68
2023/10/28 02:59:34;;;;;;;0.90;0.90;;;22.60;68.80;;;;;;5011519;28;21257;-68
2023/10/28 03:02:02;;;;;;;1.07;0.90;;;22.60;68.30;;;;;;5010886;28;20437;-68
2023/10/28 03:04:30;;;;;;;1.10;1.00;;;22.60;68.60;;;;;;5013737;28;20461;-68
2023/10/28 03:06:59;;;;;;;1.03;0.93;;;22.60;68.60;;;;;;5003769;28;20527;-68
2023/10/28 03:09:27;;;;;;;0.90;0.90;;;22.60;68.20;;;;;;5007919;28;20464;-68
2023/10/28 03:11:55;;;;;;;0.70;0.70;;;22.60;68.40;;;;;;5010722;28;20460;-69
2023/10/28 03:14:24;;;;;;;1.27;1.17;;;22.60;68.70;;;;;;5009486;28;20465;-68
2023/10/28 03:16:53;;;;;;;1.67;1.10;;;22.60;68.40;;;;;;4998309;28;20461;-69
2023/10/28 03:19:21;;;;;;;1.37;1.17;;;22.60;68.50;;;;;;5003780;28;20833;-68
2023/10/28 03:21:50;;;;;;;1.10;1.00;;;22.60;68.90;;;;;;5010978;28;20476;-68
2023/10/28 03:24:18;;;;;;;1.30;0.90;;;22.60;68.90;;;;;;5009742;28;20494;-68
2023/10/28 03:26:46;;;;;;;0.87;0.87;;;22.60;68.90;;;;;;4998533;28;20461;-69
2023/10/28 03:29:14;;;;;;;0.80;0.70;;;22.60;68.90;;;;;;4991816;28;20433;-68
2023/10/28 03:31:42;;;;;;;0.73;0.73;;;22.60;68.90;;;;;;4990402;28;20493;-68
2023/10/28 03:34:12;;;;;;;0.77;0.77;;;22.60;68.90;;;;;;5005283;28;20461;-68
2023/10/28 03:36:40;;;;;;;1.00;0.90;;;22.60;68.80;;;;;;5000647;28;20457;-68
2023/10/28 03:39:10;;;;;;;1.30;1.20;;;22.60;68.60;;;;;;5006106;28;20453;-68
2023/10/28 03:41:39;;;;;;;1.30;1.20;;;22.60;68.80;;;;;;5008591;28;20457;-68
2023/10/28 03:44:07;;;;;;;1.10;0.87;;;22.60;68.70;;;;;;5007474;28;20468;-68
2023/10/28 03:46:35;;;;;;;0.80;0.80;;;22.60;68.60;;;;;;4990922;28;20523;-68
2023/10/28 03:49:04;;;;;;;0.90;0.77;;;22.50;68.50;;;;;;5008814;28;20480;-68
2023/10/28 03:51:36;;;;;;;0.70;0.70;;;22.60;68.90;;;;;;5011544;28;20495;-68
2023/10/28 03:54:04;;;;;;;1.27;1.10;;;22.60;68.90;;;;;;5021087;28;20470;-68
2023/10/28 03:56:33;;;;;;;0.80;0.80;;;22.60;68.90;;;;;;5010805;28;20859;-68
2023/10/28 03:59:01;;;;;;;0.70;0.70;;;22.60;68.90;;;;;;5009162;28;20876;-68
2023/10/28 04:01:29;;;;;;;2.00;0.90;;;22.60;68.90;;;;;;5002885;28;20449;-69
2023/10/28 04:03:57;;;;;;;1.37;1.10;;;22.60;68.90;;;;;;5007492;28;20464;-69
2023/10/28 04:06:26;;;;;;;1.20;0.97;;;22.60;68.90;;;;;;5010840;28;20429;-69
2023/10/28 04:08:55;;;;;;;0.80;0.80;;;22.60;68.90;;;;;;5002786;28;20508;-69
2023/10/28 04:11:23;;;;;;;1.23;0.87;;;22.70;68.90;;;;;;5000873;28;20445;-68
2023/10/28 04:13:52;;;;;;;0.80;0.80;;;22.70;68.90;;;;;;5010303;28;20457;-68
2023/10/28 04:16:21;;;;;;;0.73;0.60;;;22.70;68.90;;;;;;5007379;28;20548;-68
2023/10/28 04:18:50;;;;;;;1.10;1.00;;;22.80;68.80;;;;;;5012417;28;20452;-68
2023/10/28 04:21:18;;;;;;;1.47;0.90;;;22.80;68.80;;;;;;5008081;28;20815;-68
2023/10/28 04:23:46;;;;;;;0.93;0.87;;;22.90;68.70;;;;;;5009471;28;20453;-68
2023/10/28 04:26:15;;;;;;;0.80;0.80;;;22.90;68.60;;;;;;5006159;28;20479;-68
2023/10/28 04:28:44;;;;;;;0.63;0.63;;;22.90;68.60;;;;;;5013006;28;20469;-68
2023/10/28 04:31:12;;;;;;;1.70;0.70;;;23.00;68.50;;;;;;5015279;28;21319;-69
2023/10/28 04:33:40;;;;;;;1.10;0.80;;;23.00;68.40;;;;;;5014134;28;20479;-68
2023/10/28 04:36:10;;;;;;;0.60;0.60;;;23.10;68.30;;;;;;5013623;28;20542;-68
2023/10/28 04:38:40;;;;;;;0.87;0.80;;;23.10;68.10;;;;;;5013949;28;20433;-68
2023/10/28 04:41:09;;;;;;;0.70;0.70;;;23.10;68.10;;;;;;5009863;28;20543;-68
2023/10/28 04:43:39;;;;;;;1.27;0.97;;;23.10;68.00;;;;;;5011873;28;20529;-68
2023/10/28 04:46:07;;;;;;;1.73;0.80;;;23.10;68.00;;;;;;5009234;28;20468;-68
2023/10/28 04:48:42;;;;;;;0.80;0.80;;;23.10;68.00;;;;;;5003413;28;20473;-68
2023/10/28 04:51:10;;;;;;;0.80;0.80;;;23.10;68.00;;;;;;5005323;28;20453;-68
2023/10/28 04:53:39;;;;;;;0.70;0.70;;;23.10;68.00;;;;;;5013883;28;20453;-68
2023/10/28 04:56:08;;;;;;;0.60;0.60;;;23.10;68.00;;;;;;5009522;28;20463;-68
2023/10/28 04:58:39;;;;;;;0.80;0.80;;;23.10;68.00;;;;;;5012882;28;20481;-69
2023/10/28 05:01:07;;;;;;;0.83;0.83;;;23.10;68.10;;;;;;5005135;28;20474;-69
2023/10/28 05:03:37;;;;;;;0.70;0.70;;;23.00;68.20;;;;;;5009961;28;20464;-68
2023/10/28 05:06:09;;;;;;;3.60;1.10;;;23.00;68.20;;;;;;4994209;28;20446;-68
2023/10/28 05:08:38;;;;;;;0.80;0.80;;;23.00;68.20;;;;;;5004094;28;20499;-68
2023/10/28 05:11:08;;;;;;;0.63;0.63;;;23.00;68.30;;;;;;5006128;28;20516;-69
2023/10/28 05:13:37;;;;;;;0.80;0.80;;;23.00;68.30;;;;;;5006882;28;20460;-69
2023/10/28 05:16:06;;;;;;;0.60;0.60;;;22.90;68.30;;;;;;5014758;28;20503;-67
2023/10/28 05:18:34;;;;;;;2.33;0.77;;;22.90;68.30;;;;;;5003353;28;20488;-67
2023/10/28 05:21:02;;;;;;;1.27;0.80;;;22.90;68.40;;;;;;5009516;28;20461;-68
2023/10/28 05:23:31;;;;;;;1.13;0.80;;;22.90;68.40;;;;;;5004502;28;20552;-68
2023/10/28 05:25:59;;;;;;;0.73;0.70;;;22.90;68.40;;;;;;5009458;28;20466;-68
2023/10/28 05:28:27;;;;;;;0.70;0.70;;;22.90;68.40;;;;;;5008530;28;20476;-68
2023/10/28 05:30:57;;;;;;;0.80;0.70;;;22.90;68.50;;;;;;5006365;28;20461;-68
2023/10/28 05:33:25;;;;;;;0.70;0.60;;;22.80;68.50;;;;;;5005929;28;20531;-69
2023/10/28 05:35:53;;;;;;;1.50;0.70;;;22.80;68.50;;;;;;5008781;28;20830;-68
2023/10/28 05:38:22;;;;;;;3.13;0.90;;;22.80;68.60;;;;;;5004494;28;20487;-68
2023/10/28 05:40:50;;;;;;;1.17;0.80;;;22.80;68.60;;;;;;5026998;28;20788;-68
2023/10/28 05:43:19;;;;;;;1.17;1.13;;;22.80;68.60;;;;;;5010747;28;20488;-68
2023/10/28 05:45:48;;;;;;;0.70;0.70;;;22.80;68.60;;;;;;5010463;28;20534;-68
2023/10/28 05:48:20;;;;;;;1.57;0.70;;;22.80;68.60;;;;;;4997950;28;20458;-68
2023/10/28 05:50:48;;;;;;;0.93;0.60;;;22.80;68.70;;;;;;5003044;28;20445;-68
2023/10/28 05:53:17;;;;;;;1.57;0.80;;;22.80;68.70;;;;;;5010495;28;20470;-68
2023/10/28 05:55:46;;;;;;;4.00;1.17;;;22.80;68.70;;;;;;5012755;28;21016;-68
2023/10/28 05:58:14;;;;;;;1.47;0.60;;;22.80;68.70;;;;;;5010457;28;20444;-68
2023/10/28 06:00:42;;;;;;;0.90;0.60;;;22.80;68.70;;;;;;5006069;28;20989;-68
2023/10/28 06:03:12;;;;;;;0.77;0.60;;;22.80;68.70;;;;;;5001056;28;20460;-68
2023/10/28 06:05:42;;;;;;;1.93;0.90;;;22.80;68.70;;;;;;5007129;28;21727;-68
2023/10/28 06:08:11;;;;;;;0.80;0.80;;;22.80;68.70;;;;;;4994762;28;20458;-68
2023/10/28 06:10:39;;;;;;;2.73;0.70;;;22.80;68.70;;;;;;5004915;28;20477;-68
2023/10/28 06:13:09;;;;;;;1.53;0.77;;;22.90;68.60;;;;;;5009267;28;20467;-68
2023/10/28 06:15:37;;;;;;;1.23;0.67;;;22.90;68.60;;;;;;5006498;28;20874;-68
2023/10/28 06:18:06;;;;;;;0.80;0.80;;;22.90;68.60;;;;;;5012006;28;20452;-67
2023/10/28 06:20:34;;;;;;;1.00;0.60;;;22.90;68.50;;;;;;5010658;28;20458;-68
2023/10/28 06:23:06;;;;;;;1.23;0.80;;;22.90;68.50;;;;;;4999803;28;20564;-68
2023/10/28 06:25:35;;;;;;;1.63;0.80;;;22.90;68.50;;;;;;4998583;28;20460;-68
2023/10/28 06:28:05;;;;;;;0.87;0.80;;;22.90;68.40;;;;;;4998839;28;20454;-69
2023/10/28 06:30:33;;;;;;;0.67;0.67;;;22.90;68.40;;;;;;5007546;28;20890;-68
2023/10/28 06:33:02;;;;;;;0.60;0.60;;;22.90;68.40;;;;;;5005122;28;20592;-69
2023/10/28 06:35:30;;;;;;;0.73;0.70;;;22.90;68.40;;;;;;5008196;28;20456;-68
2023/10/28 06:37:59;;;;;;;2.07;0.80;;;22.90;68.40;;;;;;5005212;28;20460;-68
2023/10/28 06:40:29;;;;;;;1.03;0.90;;;22.90;68.30;;;;;;5007642;28;20877;-68
2023/10/28 06:42:57;;;;;;;1.37;0.60;;;22.90;68.30;;;;;;5009450;28;20880;-68
2023/10/28 06:45:25;;;;;;;0.97;0.60;;;22.90;68.30;;;;;;5003976;28;20457;-69
2023/10/28 06:47:54;;;;;;;1.63;0.70;;;22.90;68.30;;;;;;5008834;28;20453;-68
2023/10/28 06:50:22;;;;;;;0.77;0.77;;;22.90;68.30;;;;;;5006148;28;20477;-68
2023/10/28 06:52:50;;;;;;;1.53;0.70;;;22.90;68.20;;;;;;5006209;28;20484;-68
2023/10/28 06:55:19;;;;;;;2.40;0.80;;;22.90;68.30;;;;;;5007630;28;20461;-67
2023/10/28 06:57:48;;;;;;;1.17;0.60;;;22.90;68.30;;;;;;5006791;28;20491;-68
2023/10/28 07:00:17;;;;;;;0.73;0.73;;;22.90;68.30;;;;;;5001961;28;20546;-68
2023/10/28 07:02:46;;;;;;;1.40;0.53;;;22.90;68.40;;;;;;5006712;28;20514;-68
2023/10/28 07:05:14;;;;;;;0.70;0.70;;;22.90;68.40;;;;;;5001616;28;20457;-68
2023/10/28 07:07:43;;;;;;;2.20;0.77;;;22.90;68.40;;;;;;5009883;28;20471;-68
2023/10/28 07:10:14;;;;;;;1.57;0.80;;;22.80;68.40;;;;;;5009752;28;20489;-68
2023/10/28 07:12:43;;;;;;;1.30;0.80;;;22.80;68.40;;;;;;5004879;28;20472;-69
2023/10/28 07:15:12;;;;;;;1.07;0.93;;;22.80;68.40;;;;;;5003640;28;21022;-68
2023/10/28 07:17:41;;;;;;;0.60;0.60;;;22.80;68.40;;;;;;5007104;28;20449;-69
2023/10/28 07:20:10;;;;;;;1.47;0.70;;;22.80;69.30;;;;;;5007064;28;20446;-70
2023/10/28 07:22:38;;;;;;;2.10;0.90;;;22.80;69.60;;;;;;5004683;28;20496;-70
2023/10/28 07:25:07;;;;;;;0.90;0.87;;;22.90;69.00;;;;;;5001863;28;20527;-70
2023/10/28 07:27:35;;;;;;;2.67;0.80;;;22.90;69.00;;;;;;4998339;28;20468;-70
2023/10/28 07:30:03;;;;;;;3.37;1.30;;;22.90;69.00;;;;;;5003963;28;20474;-70
2023/10/28 07:32:34;;;;;;;2.20;0.80;;;22.90;69.10;;;;;;5003354;28;20496;-70
2023/10/28 07:35:05;;;;;;;2.23;1.30;;;23.00;69.00;;;;;;5001811;28;21059;-69
2023/10/28 07:37:34;;;;;;;2.50;1.10;;;23.10;68.80;;;;;;5002288;28;20454;-70
2023/10/28 07:40:03;;;;;;;8.13;1.60;;;23.10;68.90;;;;;;5006257;28;20460;-70
2023/10/28 07:42:34;;;;;;;3.40;1.50;;;23.10;68.80;;;;;;5000865;28;20464;-69
2023/10/28 07:45:04;;;;;;;5.33;1.43;;;23.20;68.70;;;;;;5001991;28;20467;-68
2023/10/28 07:47:33;;;;;;;3.67;1.47;;;23.20;68.50;;;;;;5008709;28;20600;-69
2023/10/28 07:50:02;;;;;;;4.53;1.47;;;23.20;68.50;;;;;;5005038;28;20478;-68
2023/10/28 07:52:30;;;;;;;6.60;1.70;;;23.20;68.30;;;;;;5002260;28;20827;-68
2023/10/28 07:54:59;;;;;;;9.40;2.73;;;23.20;68.30;;;;;;5003173;28;20454;-68
2023/10/28 07:57:28;;;;;;;2.73;1.53;;;23.20;68.00;;;;;;5001012;28;20527;-69
2023/10/28 07:59:56;;;;;;;5.30;1.53;;;23.10;68.10;;;;;;5006770;28;20489;-71
2023/10/28 08:02:24;;;;;;;4.90;1.20;;;23.10;68.50;;;;;;5003069;28;21269;-68
2023/10/28 08:04:57;;;;;;;5.10;1.50;;;23.10;68.80;;;;;;5003351;28;20458;-71
2023/10/28 08:07:26;;;;;;;5.10;1.90;;;23.10;68.80;;;;;;5025986;28;20964;-69
2023/10/28 08:09:54;;;;;;;4.03;1.73;;;23.10;68.80;;;;;;5010478;28;20575;-70
2023/10/28 08:12:22;;;;;;;12.03;2.30;;;23.10;68.80;;;;;;5004494;28;20466;-70
2023/10/28 08:14:50;;;;;;;3.50;1.37;;;23.10;68.60;;;;;;5008133;28;20543;-68
2023/10/28 08:17:18;;;;;;;5.90;2.20;;;23.10;68.80;;;;;;5010067;28;20442;-68
2023/10/28 08:19:47;;;;;;;2.27;1.50;;;23.10;68.50;;;;;;5001028;28;20499;-68
2023/10/28 08:22:16;;;;;;;2.63;1.80;;;23.10;68.30;;;;;;5009349;28;20850;-70
2023/10/28 08:24:44;;;;;;;1.77;1.10;;;23.10;68.80;;;;;;5008784;28;20949;-69
2023/10/28 08:27:13;;;;;;;1.50;1.10;;;23.10;68.90;;;;;;5006980;28;20542;-69
2023/10/28 08:29:43;;;;;;;3.17;1.43;;;23.00;68.80;;;;;;5001351;28;20462;-69
2023/10/28 08:32:12;;;;;;;1.97;1.30;;;23.00;68.70;;;;;;5011251;28;20596;-69
2023/10/28 08:34:43;;;;;;;3.80;1.70;;;23.00;68.60;;;;;;5003315;28;20456;-69
2023/10/28 08:37:13;;;;;;;1.77;1.20;;;23.00;68.80;;;;;;5007492;28;20449;-68
2023/10/28 08:39:43;;;;;;;2.00;1.40;;;23.00;68.90;;;;;;5009504;28;20484;-69
2023/10/28 08:42:12;;;;;;;2.43;1.33;;;23.00;68.90;;;;;;5003268;28;20894;-72
2023/10/28 08:44:43;;;;;;;5.33;1.43;;;23.00;68.90;;;;;;5003439;28;20464;-69
2023/10/28 08:47:11;;;;;;;4.93;1.97;;;23.00;68.70;;;;;;5006866;28;20464;-69
2023/10/28 08:49:45;;;;;;;3.90;1.47;;;23.00;68.60;;;;;;5010321;28;20549;-69
2023/10/28 08:52:18;;;;;;;1.67;1.57;;;23.00;68.70;;;;;;5003567;28;20463;-69
2023/10/28 08:54:49;;;;;;;1.37;1.20;;;23.10;68.90;;;;;;5006521;28;20456;-69
2023/10/28 08:57:21;;;;;;;3.47;1.20;;;23.10;68.80;;;;;;5007609;28;20544;-69
2023/10/28 08:59:50;;;;;;;1.43;1.20;;;23.10;68.40;;;;;;5010543;28;20453;-69
2023/10/28 09:02:21;;;;;;;3.90;1.80;;;23.10;68.30;;;;;;5006561;28;20485;-69
2023/10/28 09:04:52;;;;;;;2.57;1.33;;;23.10;68.50;;;;;;5013455;28;21028;-69
2023/10/28 09:07:20;;;;;;;2.43;1.03;;;23.10;68.40;;;;;;5008920;28;20559;-69
2023/10/28 09:10:00;;;;;;;2.83;1.50;;;23.20;67.90;;;;;;5010153;28;20555;-70
2023/10/28 09:12:28;;;;;;;1.47;1.17;;;23.20;68.30;;;;;;5010482;28;20465;-71
2023/10/28 09:14:57;;;;;;;3.00;1.40;;;23.20;68.30;;;;;;5009266;28;20462;-68
2023/10/28 09:17:26;;;;;;;2.07;1.20;;;23.20;68.30;;;;;;5009875;28;20453;-70
2023/10/28 09:19:56;;;;;;;2.30;1.37;;;23.20;68.20;;;;;;5009794;28;20455;-70
2023/10/28 09:22:25;;;;;;;4.70;2.13;;;23.20;68.30;;;;;;5006758;28;20461;-70
2023/10/28 09:24:54;;;;;;;2.10;0.93;;;23.30;68.20;;;;;;5010322;28;20453;-69
2023/10/28 09:27:24;;;;;;;4.73;1.10;;;23.20;68.00;;;;;;5003918;28;20473;-71
2023/10/28 09:30:03;;;;;;;2.63;1.40;;;23.20;68.10;;;;;;5004273;28;20476;-68
2023/10/28 09:32:33;;;;;;;1.20;1.10;;;23.30;68.00;;;;;;4997029;28;20529;-67
2023/10/28 09:35:05;;;;;;;2.30;1.20;;;23.30;68.10;;;;;;5001420;28;20462;-68
2023/10/28 09:37:35;;;;;;;1.43;1.30;;;23.30;67.90;;;;;;5005234;28;20941;-68
2023/10/28 09:40:05;;;;;;;1.53;1.17;;;23.20;67.90;;;;;;5008622;28;20493;-67
2023/10/28 09:42:36;;;;;;;2.33;1.07;;;23.30;68.10;;;;;;5018035;28;20527;-68
2023/10/28 09:45:08;;;;;;;2.50;1.10;;;23.30;68.20;;;;;;5015573;28;20477;-68
2023/10/28 09:47:46;;;;;;;2.50;2.00;;;23.30;68.10;;;;;;5008658;28;20531;-68
2023/10/28 09:50:15;;;;;;;1.93;1.13;;;23.30;68.00;;;;;;5010989;28;20496;-68
2023/10/28 09:52:45;;;;;;;2.30;1.17;;;23.30;68.00;;;;;;5005852;28;21021;-69
2023/10/28 09:55:15;;;;;;;3.43;1.10;;;23.30;68.00;;;;;;5006709;28;20472;-68
2023/10/28 09:57:47;;;;;;;2.53;1.47;;;23.30;68.00;;;;;;5006396;28;20470;-69
2023/10/28 10:00:19;;;;;;;3.97;1.20;;;23.30;68.00;;;;;;5006183;28;20470;-68
2023/10/28 10:03:03;;;;;;;1.50;0.90;;;23.30;68.10;;;;;;5006111;28;20462;-69
2023/10/28 10:05:38;;;;;;;1.40;0.73;;;23.30;68.00;;;;;;5006065;28;20474;-71
2023/10/28 10:08:16;;;;;;;4.40;2.13;;;23.40;68.00;;;;;;5000158;28;20464;-71
2023/10/28 10:10:46;;;;;;;2.80;1.80;;;23.40;68.00;;;;;;5002705;28;20452;-70
2023/10/28 10:13:16;;;;;;;4.40;1.33;;;23.50;68.00;;;;;;5002351;28;20473;-69
2023/10/28 10:15:54;;;;;;;1.63;1.20;;;23.50;67.80;;;;;;5004907;28;20933;-70
2023/10/28 10:18:33;;;;;;;2.70;1.43;;;23.60;67.70;;;;;;5006564;28;20965;-69
2023/10/28 10:21:05;;;;;;;6.87;1.33;;;23.70;67.60;;;;;;5007140;28;20464;-70
2023/10/28 10:23:44;;;;;;;3.43;1.27;;;23.80;67.50;;;;;;5006283;28;20539;-69
2023/10/28 10:26:26;;;;;;;6.57;1.47;;;23.90;67.20;;;;;;5005634;28;20455;-69
2023/10/28 10:28:59;;;;;;;4.40;1.57;;;24.00;66.90;;;;;;5004908;28;20553;-72
2023/10/28 10:31:31;;;;;;;3.83;1.53;;;24.10;66.50;;;;;;4998133;28;20521;-71
2023/10/28 10:34:05;;;;;;;4.00;1.80;;;24.30;66.20;;;;;;5008341;28;20434;-70
2023/10/28 10:36:40;;;;;;;4.40;1.97;;;24.40;65.90;;;;;;5019383;28;20980;-70
2023/10/28 10:39:15;;;;;;;2.27;1.30;;;24.60;65.40;;;;;;5004325;28;20537;-69
2023/10/28 10:41:48;;;;;;;4.30;2.23;;;24.80;65.00;;;;;;5014485;28;20607;-69
2023/10/28 10:44:36;;;;;;;1.90;1.50;;;25.00;64.60;;;;;;5009248;28;20458;-69
2023/10/28 10:47:08;;;;;;;2.20;1.30;;;25.10;64.20;;;;;;5006677;28;20554;-69
2023/10/28 10:49:39;;;;;;;2.60;1.53;;;25.30;63.90;;;;;;5004781;28;20454;-69
2023/10/28 10:52:09;;;;;;;4.30;1.70;;;25.30;63.70;;;;;;5010626;28;20479;-69
2023/10/28 10:54:40;;;;;;;4.20;1.50;;;25.40;63.60;;;;;;5010797;28;20447;-69
2023/10/28 10:57:10;;;;;;;3.03;1.40;;;25.50;63.30;;;;;;5008772;28;20549;-68
2023/10/28 10:59:40;;;;;;;5.00;1.60;;;25.50;63.20;;;;;;5010034;28;20499;-67
2023/10/28 11:02:10;;;;;;;2.20;1.30;;;25.60;63.00;;;;;;5006725;28;20530;-67
2023/10/28 11:04:39;;;;;;;6.83;1.37;;;25.70;62.80;;;;;;5008087;28;20481;-67
2023/10/28 11:07:08;;;;;;;1.43;1.33;;;25.70;62.70;;;;;;5008438;28;20466;-67
2023/10/28 11:09:38;;;;;;;4.30;1.50;;;25.80;62.60;;;;;;5005963;28;20491;-67
2023/10/28 11:12:07;;;;;;;2.73;1.80;;;25.80;62.40;;;;;;5015201;28;20491;-67
2023/10/28 11:14:35;;;;;;;3.70;1.60;;;25.90;62.30;;;;;;5004787;28;21863;-67
2023/10/28 11:17:05;;;;;;;2.43;1.20;;;26.00;62.20;;;;;;4997351;28;20974;-67
2023/10/28 11:19:34;;;;;;;4.60;1.97;;;26.00;62.20;;;;;;5006780;28;20448;-67
2023/10/28 11:22:03;;;;;;;1.40;1.23;;;26.00;62.00;;;;;;5022143;28;20449;-67
2023/10/28 11:24:35;;;;;;;2.27;1.70;;;26.10;61.90;;;;;;5010511;28;20453;-67
2023/10/28 11:27:03;;;;;;;7.37;1.37;;;26.10;61.90;;;;;;5007939;28;20884;-67
2023/10/28 11:29:32;;;;;;;2.60;1.23;;;26.10;61.90;;;;;;5010352;28;20469;-67
2023/10/28 11:32:08;;;;;;;2.33;1.07;;;26.10;61.90;;;;;;5014359;28;20912;-67
2023/10/28 11:34:38;;;;;;;3.97;1.20;;;26.10;61.90;;;;;;5008154;28;20511;-68
2023/10/28 11:37:09;;;;;;;2.20;1.40;;;26.10;62.00;;;;;;5008303;28;20464;-67
2023/10/28 11:39:39;;;;;;;2.40;1.80;;;26.10;61.90;;;;;;5009907;28;20940;-68
2023/10/28 11:42:09;;;;;;;2.13;1.37;;;26.20;61.90;;;;;;5013528;28;20453;-67
2023/10/28 11:44:38;;;;;;;1.57;0.83;;;26.30;61.80;;;;;;5009964;28;20470;-67
2023/10/28 11:47:10;;;;;;;3.20;1.87;;;26.30;61.70;;;;;;5001583;28;20469;-68
2023/10/28 11:49:39;;;;;;;3.17;1.40;;;26.30;61.70;;;;;;5005190;28;20472;-67
2023/10/28 11:52:09;;;;;;;2.70;1.40;;;26.30;61.60;;;;;;5014784;28;20503;-67
2023/10/28 11:54:37;;;;;;;1.37;1.23;;;26.00;61.90;;;;;;5010474;28;20961;-67
2023/10/28 11:57:05;;;;;;;2.90;1.40;;;25.90;62.30;;;;;;5009877;28;20526;-67
2023/10/28 11:59:35;;;;;;;1.70;1.23;;;25.70;62.60;;;;;;5007672;28;20452;-67
2023/10/28 12:02:03;;;;;;;7.37;1.77;;;25.50;62.90;;;;;;5009402;28;20510;-67
2023/10/28 12:04:34;;;;;;;1.37;1.27;;;25.40;63.20;;;;;;5004747;28;21201;-67
2023/10/28 12:07:03;;;;;;;1.47;1.30;;;25.30;63.50;;;;;;5012175;28;20458;-67
2023/10/28 12:09:35;;;;;;;3.03;1.47;;;25.30;63.50;;;;;;5008395;28;20494;-68
2023/10/28 12:12:04;;;;;;;1.10;1.07;;;25.20;63.70;;;;;;5006519;28;20476;-67
2023/10/28 12:14:32;;;;;;;3.13;1.10;;;25.20;63.90;;;;;;5008752;28;20458;-67
2023/10/28 12:17:01;;;;;;;1.53;1.00;;;25.20;63.80;;;;;;5005624;28;20462;-67
2023/10/28 12:19:29;;;;;;;1.00;0.90;;;25.20;63.80;;;;;;5009656;28;20456;-67
2023/10/28 12:21:59;;;;;;;1.70;1.40;;;25.10;63.90;;;;;;5012867;28;20979;-67
2023/10/28 12:24:27;;;;;;;4.67;1.37;;;25.10;63.90;;;;;;5010216;28;20450;-67
2023/10/28 12:26:56;;;;;;;0.90;0.90;;;25.10;64.00;;;;;;5015346;28;20452;-67
2023/10/28 12:29:25;;;;;;;1.50;1.30;;;25.00;64.00;;;;;;5008220;28;20932;-67
2023/10/28 12:31:53;;;;;;;2.00;1.20;;;25.00;64.00;;;;;;5009836;28;20545;-69
2023/10/28 12:34:21;;;;;;;2.23;1.43;;;25.00;64.00;;;;;;5006240;28;20459;-69
2023/10/28 12:36:50;;;;;;;3.10;1.00;;;25.00;64.00;;;;;;5012266;28;20455;-69
2023/10/28 12:39:20;;;;;;;2.13;1.40;;;25.00;64.00;;;;;;5009593;28;20475;-69
2023/10/28 12:41:48;;;;;;;1.20;1.10;;;24.90;64.10;;;;;;5019143;28;20454;-69
2023/10/28 12:44:16;;;;;;;2.87;1.80;;;24.80;64.40;;;;;;5006644;28;20496;-69
2023/10/28 12:46:45;;;;;;;2.63;1.17;;;24.80;64.20;;;;;;5002919;28;20830;-69
2023/10/28 12:49:14;;;;;;;1.00;0.90;;;24.60;64.30;;;;;;5008694;28;20501;-69
2023/10/28 12:51:42;;;;;;;1.63;1.10;;;24.50;64.80;;;;;;5013540;28;20540;-69
2023/10/28 12:54:11;;;;;;;1.50;1.03;;;24.50;64.80;;;;;;5012801;28;20484;-69
2023/10/28 12:56:41;;;;;;;1.13;0.93;;;24.40;64.90;;;;;;5012235;28;20468;-69
2023/10/28 12:59:10;;;;;;;1.50;1.40;;;24.40;65.20;;;;;;5011931;28;20842;-69